createdAt,value
2016-03-10T09:50:55.384Z,135
2016-03-10T09:51:52.965Z,135
2016-03-10T09:52:52.952Z,135
2016-03-10T09:53:52.970Z,130
2016-03-10T09:54:52.956Z,125
2016-03-10T09:55:52.945Z,125
2016-03-10T09:56:52.915Z,125
2016-03-10T09:57:52.918Z,125
2016-03-10T09:58:52.906Z,125
2016-03-10T09:59:52.612Z,130
2016-03-10T10:00:52.926Z,135
2016-03-10T10:01:52.913Z,135
2016-03-10T10:02:52.917Z,135
2016-03-10T10:03:55.356Z,130
2016-03-10T10:04:53.281Z,125
2016-03-10T10:05:53.408Z,120
2016-03-10T10:06:53.255Z,120
2016-03-10T10:07:52.930Z,130
2016-03-10T10:08:53.385Z,130
2016-03-10T10:09:52.732Z,130
2016-03-10T10:10:52.860Z,135
2016-03-10T10:11:52.862Z,145
2016-03-10T10:12:55.302Z,150
2016-03-10T10:13:54.805Z,155
2016-03-10T10:14:53.885Z,175
2016-03-10T10:15:52.841Z,175
2016-03-10T10:16:53.484Z,190
2016-03-10T10:17:53.582Z,195
2016-03-10T10:18:52.818Z,190
2016-03-10T10:19:53.055Z,205
2016-03-10T10:20:52.871Z,220
2016-03-10T10:21:52.873Z,245
2016-03-10T10:22:52.829Z,260
2016-03-10T10:23:52.770Z,225
2016-03-10T10:24:52.913Z,245
2016-03-10T10:25:52.790Z,240
2016-03-10T10:26:52.761Z,240
2016-03-10T10:27:53.186Z,235
2016-03-10T10:28:52.767Z,230
2016-03-10T10:29:52.739Z,210
2016-03-10T10:30:52.757Z,185
2016-03-10T10:31:52.759Z,185
2016-03-10T10:32:52.731Z,215
2016-03-10T10:33:52.734Z,215
2016-03-10T10:34:52.736Z,215
2016-03-10T10:35:52.708Z,215
2016-03-10T10:36:52.711Z,210
2016-03-10T10:37:52.697Z,215
2016-03-10T10:38:54.388Z,220
2016-03-10T10:39:54.484Z,205
2016-03-10T10:41:07.646Z,185
2016-03-10T10:41:52.974Z,180
2016-03-10T10:43:06.854Z,190
2016-03-10T10:43:53.166Z,190
2016-03-10T10:44:52.638Z,175
2016-03-10T10:45:52.672Z,185
2016-03-10T10:46:52.643Z,190
2016-03-10T10:47:54.460Z,180
2016-03-10T10:48:53.383Z,190
2016-03-10T10:49:52.636Z,195
2016-03-10T10:50:52.998Z,190
2016-03-10T10:52:07.269Z,180
2016-03-10T10:52:53.035Z,180
2016-03-10T10:53:52.615Z,190
2016-03-10T10:54:53.103Z,180
2016-03-10T10:55:52.668Z,175
2016-03-10T10:56:52.640Z,185
2016-03-10T10:57:52.595Z,190
2016-03-10T10:58:52.582Z,200
2016-03-10T10:59:52.616Z,210
2016-03-10T11:00:52.572Z,190
2016-03-10T11:01:52.590Z,195
2016-03-10T11:02:52.812Z,230
2016-03-10T11:03:52.596Z,250
2016-03-10T11:04:52.551Z,225
2016-03-10T11:05:52.570Z,220
2016-03-10T11:06:52.556Z,210
2016-03-10T11:07:52.544Z,210
2016-03-10T11:08:52.546Z,255
2016-03-10T11:09:52.519Z,265
2016-03-10T11:10:52.536Z,260
2016-03-10T11:11:52.507Z,225
2016-03-10T11:12:52.541Z,205
2016-03-10T11:13:52.529Z,205
2016-03-10T11:14:52.516Z,215
2016-03-10T11:15:52.925Z,210
2016-03-10T11:16:52.505Z,200
2016-03-10T11:17:52.477Z,195
2016-03-10T11:18:52.464Z,210
2016-03-10T11:19:52.466Z,205
2016-03-10T11:20:52.485Z,240
2016-03-10T11:21:52.440Z,275
2016-03-10T11:22:53.053Z,325
2016-03-10T11:23:53.946Z,325
2016-03-10T11:24:54.043Z,290
2016-03-10T11:25:53.482Z,280
2016-03-10T11:26:53.392Z,285
2016-03-10T11:27:53.129Z,315
2016-03-10T11:28:53.273Z,335
2016-03-10T11:29:52.431Z,310
2016-03-10T11:30:52.450Z,300
2016-03-10T11:31:52.515Z,310
2016-03-10T11:32:52.736Z,315
2016-03-10T11:33:52.426Z,295
2016-03-10T11:34:53.632Z,280
2016-03-10T11:35:52.416Z,310
2016-03-10T11:36:52.387Z,325
2016-03-10T11:37:52.390Z,330
2016-03-10T11:38:52.393Z,350
2016-03-10T11:39:52.395Z,360
2016-03-10T11:40:52.398Z,360
2016-03-10T11:41:52.354Z,345
2016-03-10T11:42:52.388Z,330
2016-03-10T11:43:52.344Z,330
2016-03-10T11:44:52.393Z,345
2016-03-10T11:45:52.396Z,340
2016-03-10T11:46:52.352Z,345
2016-03-10T11:47:52.354Z,345
2016-03-10T11:48:52.357Z,355
2016-03-10T11:49:52.360Z,355
2016-03-10T11:50:52.347Z,360
2016-03-10T11:51:52.365Z,350
2016-03-10T11:52:52.337Z,335
2016-03-10T11:53:53.012Z,325
2016-03-10T11:54:52.171Z,310
2016-03-10T11:55:52.173Z,275
2016-03-10T11:56:52.316Z,280
2016-03-10T11:57:54.757Z,315
2016-03-10T11:58:52.307Z,315
2016-03-10T11:59:52.293Z,335
2016-03-10T12:01:06.565Z,355
2016-03-10T12:01:52.393Z,365
2016-03-10T12:02:52.411Z,370
2016-03-10T12:03:52.601Z,385
2016-03-10T12:04:52.306Z,380
2016-03-10T12:05:52.263Z,365
2016-03-10T12:06:54.499Z,365
2016-03-10T12:07:53.440Z,375
2016-03-10T12:08:52.303Z,385
2016-03-10T12:09:52.694Z,375
2016-03-10T12:10:52.729Z,360
2016-03-10T12:11:52.263Z,345
2016-03-10T12:12:52.343Z,340
2016-03-10T12:13:52.252Z,345
2016-03-10T12:14:52.255Z,325
2016-03-10T12:15:52.242Z,310
2016-03-10T12:16:52.244Z,285
2016-03-10T12:17:52.248Z,275
2016-03-10T12:18:52.235Z,265
2016-03-10T12:19:52.269Z,260
2016-03-10T12:20:52.241Z,255
2016-03-10T12:21:52.243Z,260
2016-03-10T12:22:52.246Z,265
2016-03-10T12:23:52.218Z,260
2016-03-10T12:24:52.266Z,265
2016-03-10T12:25:52.223Z,280
2016-03-10T12:26:52.210Z,270
2016-03-10T12:27:52.212Z,260
2016-03-10T12:28:52.199Z,260
2016-03-10T12:29:52.218Z,250
2016-03-10T12:30:52.221Z,245
2016-03-10T12:31:52.239Z,250
2016-03-10T12:32:52.179Z,250
2016-03-10T12:33:52.885Z,245
2016-03-10T12:34:52.153Z,240
2016-03-10T12:35:52.171Z,240
2016-03-10T12:36:52.159Z,250
2016-03-10T12:37:52.176Z,250
2016-03-10T12:38:52.164Z,250
2016-03-10T12:39:52.151Z,250
2016-03-10T12:40:52.185Z,255
2016-03-10T12:41:53.828Z,265
2016-03-10T12:42:54.659Z,260
2016-03-10T12:43:52.162Z,245
2016-03-10T12:44:52.117Z,240
2016-03-10T12:45:52.652Z,240
2016-03-10T12:46:52.733Z,245
2016-03-10T12:47:52.203Z,235
2016-03-10T12:48:52.097Z,240
2016-03-10T12:49:52.130Z,240
2016-03-10T12:50:53.665Z,240
2016-03-10T12:51:53.355Z,250
2016-03-10T12:52:52.483Z,245
2016-03-10T12:53:52.095Z,245
2016-03-10T12:54:52.535Z,250
2016-03-10T12:55:52.850Z,255
2016-03-10T12:56:52.087Z,265
2016-03-10T12:57:52.090Z,285
2016-03-10T12:58:52.092Z,280
2016-03-10T12:59:52.048Z,270
2016-03-10T13:00:52.067Z,270
2016-03-10T13:01:52.679Z,275
2016-03-10T13:02:52.057Z,295
2016-03-10T13:03:52.044Z,295
2016-03-10T13:04:52.078Z,300
2016-03-10T13:05:52.049Z,300
2016-03-10T13:06:52.067Z,305
2016-03-10T13:07:52.039Z,310
2016-03-10T13:08:52.042Z,310
2016-03-10T13:09:52.013Z,325
2016-03-10T13:10:52.031Z,345
2016-03-10T13:11:52.018Z,300
2016-03-10T13:12:52.005Z,255
2016-03-10T13:13:52.015Z,255
2016-03-10T13:14:52.033Z,280
2016-03-10T13:15:52.005Z,300
2016-03-10T13:17:07.070Z,300
2016-03-10T13:17:51.994Z,305
2016-03-10T13:18:51.997Z,315
2016-03-10T13:19:52.407Z,335
2016-03-10T13:20:52.268Z,350
2016-03-10T13:21:52.349Z,375
2016-03-10T13:22:52.665Z,335
2016-03-10T13:23:52.167Z,285
2016-03-10T13:24:51.966Z,280
2016-03-10T13:25:54.672Z,300
2016-03-10T13:26:53.535Z,320
2016-03-10T13:27:52.146Z,325
2016-03-10T13:28:52.868Z,340
2016-03-10T13:30:06.167Z,345
2016-03-10T13:30:52.278Z,340
2016-03-10T13:31:52.391Z,335
2016-03-10T13:32:51.956Z,330
2016-03-10T13:33:51.912Z,325
2016-03-10T13:34:51.946Z,325
2016-03-10T13:35:51.933Z,290
2016-03-10T13:36:51.937Z,270
2016-03-10T13:37:51.954Z,290
2016-03-10T13:38:51.910Z,305
2016-03-10T13:39:51.913Z,310
2016-03-10T13:40:51.916Z,305
2016-03-10T13:41:51.934Z,295
2016-03-10T13:42:51.890Z,285
2016-03-10T13:43:51.939Z,290
2016-03-10T13:44:51.942Z,310
2016-03-10T13:45:51.867Z,345
2016-03-10T13:46:51.916Z,365
2016-03-10T13:47:51.857Z,385
2016-03-10T13:48:51.905Z,400
2016-03-10T13:49:51.893Z,420
2016-03-10T13:50:51.864Z,425
2016-03-10T13:51:52.118Z,415
2016-03-10T13:52:51.854Z,395
2016-03-10T13:53:51.888Z,400
2016-03-10T13:54:51.844Z,390
2016-03-10T13:55:51.862Z,360
2016-03-10T13:56:51.849Z,335
2016-03-10T13:57:52.134Z,290
2016-03-10T13:58:51.901Z,215
2016-03-10T13:59:51.842Z,165
2016-03-10T14:00:54.406Z,145
2016-03-10T14:01:52.237Z,150
2016-03-10T14:02:52.756Z,150
2016-03-10T14:03:52.884Z,130
2016-03-10T14:04:51.981Z,120
2016-03-10T14:05:52.608Z,115
2016-03-10T14:06:51.841Z,120
2016-03-10T14:07:52.000Z,125
2016-03-10T14:08:51.832Z,130
2016-03-10T14:09:51.818Z,130
2016-03-10T14:10:53.680Z,125
2016-03-10T14:11:52.760Z,130
2016-03-10T14:12:51.794Z,140
2016-03-10T14:13:52.922Z,155
2016-03-10T14:14:52.472Z,170
2016-03-10T14:15:51.803Z,185
2016-03-10T14:16:52.040Z,220
2016-03-10T14:17:51.792Z,245
2016-03-10T14:18:51.889Z,255
2016-03-10T14:19:51.781Z,260
2016-03-10T14:20:51.800Z,260
2016-03-10T14:21:51.772Z,260
2016-03-10T14:22:51.790Z,255
2016-03-10T14:23:51.778Z,255
2016-03-10T14:24:51.764Z,250
2016-03-10T14:25:51.752Z,240
2016-03-10T14:26:51.035Z,235
2016-03-10T14:27:51.803Z,240
2016-03-10T14:28:51.010Z,230
2016-03-10T14:29:51.763Z,230
2016-03-10T14:30:51.718Z,225
2016-03-10T14:31:51.736Z,220
2016-03-10T14:32:51.723Z,220
2016-03-10T14:33:51.741Z,220
2016-03-10T14:34:51.729Z,220
2016-03-10T14:36:07.216Z,220
2016-03-10T14:36:52.250Z,220
2016-03-10T14:37:52.113Z,220
2016-03-10T14:38:51.708Z,220
2016-03-10T14:39:52.149Z,230
2016-03-10T14:40:51.901Z,240
2016-03-10T14:41:51.685Z,260
2016-03-10T14:42:51.673Z,275
2016-03-10T14:43:51.659Z,285
2016-03-10T14:45:07.349Z,260
2016-03-10T14:46:05.868Z,245
2016-03-10T14:46:52.105Z,240
2016-03-10T14:48:05.952Z,245
2016-03-10T14:48:52.517Z,245
2016-03-10T14:50:05.973Z,245
2016-03-10T14:50:51.851Z,245
2016-03-10T14:51:51.743Z,240
2016-03-10T14:52:51.590Z,230
2016-03-10T14:53:51.623Z,230
2016-03-10T14:54:51.626Z,225
2016-03-10T14:55:51.628Z,225
2016-03-10T14:56:51.616Z,215
2016-03-10T14:57:51.634Z,210
2016-03-10T14:58:51.605Z,205
2016-03-10T14:59:51.593Z,205
2016-03-10T15:00:51.611Z,200
2016-03-10T15:01:51.598Z,195
2016-03-10T15:02:51.585Z,185
2016-03-10T15:03:51.588Z,180
2016-03-10T15:04:51.590Z,185
2016-03-10T15:05:51.563Z,185
2016-03-10T15:06:51.580Z,185
2016-03-10T15:07:51.583Z,185
2016-03-10T15:08:51.586Z,185
2016-03-10T15:09:51.541Z,190
2016-03-10T15:10:51.576Z,190
2016-03-10T15:11:51.563Z,190
2016-03-10T15:12:51.565Z,190
2016-03-10T15:13:51.568Z,190
2016-03-10T15:14:51.570Z,185
2016-03-10T15:15:51.543Z,185
2016-03-10T15:16:51.560Z,185
2016-03-10T15:17:51.532Z,185
2016-03-10T15:18:51.551Z,180
2016-03-10T15:19:52.506Z,175
2016-03-10T15:20:53.681Z,170
2016-03-10T15:21:51.512Z,170
2016-03-10T15:22:51.733Z,165
2016-03-10T15:23:52.517Z,160
2016-03-10T15:24:51.942Z,155
2016-03-10T15:25:51.491Z,155
2016-03-10T15:26:51.712Z,155
2016-03-10T15:27:51.497Z,165
2016-03-10T15:28:51.500Z,170
2016-03-10T15:29:53.142Z,175
2016-03-10T15:30:51.473Z,180
2016-03-10T15:31:52.976Z,170
2016-03-10T15:32:51.682Z,160
2016-03-10T15:33:52.388Z,160
2016-03-10T15:34:51.875Z,155
2016-03-10T15:35:51.596Z,150
2016-03-10T15:36:51.474Z,145
2016-03-10T15:37:51.461Z,140
2016-03-10T15:38:51.448Z,140
2016-03-10T15:39:51.513Z,130
2016-03-10T15:40:51.454Z,125
2016-03-10T15:41:51.456Z,120
2016-03-10T15:42:51.427Z,115
2016-03-10T15:43:51.430Z,110
2016-03-10T15:44:51.449Z,110
2016-03-10T15:45:51.451Z,110
2016-03-10T15:46:51.407Z,110
2016-03-10T15:47:51.441Z,110
2016-03-10T15:48:51.412Z,110
2016-03-10T15:49:51.415Z,110
2016-03-10T15:50:51.402Z,110
2016-03-10T15:51:51.405Z,115
2016-03-10T15:52:51.423Z,115
2016-03-10T15:53:51.410Z,115
2016-03-10T15:54:52.726Z,115
2016-03-10T15:56:05.587Z,115
2016-03-10T15:56:52.434Z,115
2016-03-10T15:58:05.546Z,120
2016-03-10T15:58:51.470Z,120
2016-03-10T15:59:51.661Z,115
2016-03-10T16:00:52.069Z,115
2016-03-10T16:01:51.338Z,115
2016-03-10T16:02:51.372Z,115
2016-03-10T16:03:53.641Z,115
2016-03-10T16:05:05.986Z,115
2016-03-10T16:06:20.552Z,110
2016-03-10T16:06:51.367Z,110
2016-03-10T16:07:51.855Z,110
2016-03-10T16:08:51.858Z,105
2016-03-10T16:09:51.344Z,105
2016-03-10T16:10:51.316Z,100
2016-03-10T16:11:51.303Z,100
2016-03-10T16:12:51.305Z,95
2016-03-10T16:13:51.293Z,95
2016-03-10T16:14:51.296Z,90
2016-03-10T16:15:51.298Z,90
2016-03-10T16:16:51.285Z,85
2016-03-10T16:17:51.272Z,85
2016-03-10T16:18:51.274Z,80
2016-03-10T16:19:51.261Z,75
2016-03-10T16:20:51.265Z,75
2016-03-10T16:21:51.268Z,70
2016-03-10T16:22:51.238Z,70
2016-03-10T16:23:51.287Z,65
2016-03-10T16:24:51.228Z,60
2016-03-10T16:25:51.590Z,60
2016-03-10T16:26:51.265Z,60
2016-03-10T16:27:51.252Z,60
2016-03-10T16:28:51.223Z,60
2016-03-10T16:29:51.211Z,55
2016-03-10T16:30:51.197Z,55
2016-03-10T16:31:51.247Z,55
2016-03-10T16:32:51.188Z,50
2016-03-10T16:33:51.222Z,50
2016-03-10T16:34:51.193Z,45
2016-03-10T16:35:51.196Z,45
2016-03-10T16:36:51.183Z,40
2016-03-10T16:37:51.811Z,40
2016-03-10T16:38:53.220Z,40
2016-03-10T16:39:51.956Z,35
2016-03-10T16:40:52.568Z,35
2016-03-10T16:41:51.165Z,30
2016-03-10T16:42:51.714Z,30
2016-03-10T16:43:51.327Z,30
2016-03-10T16:44:51.141Z,25
2016-03-10T16:45:51.566Z,25
2016-03-10T16:46:51.225Z,25
2016-03-10T16:47:51.088Z,20
2016-03-10T16:48:51.949Z,20
2016-03-10T16:49:51.858Z,20
2016-03-10T16:50:51.268Z,15
2016-03-10T16:51:52.130Z,15
2016-03-10T16:52:51.234Z,15
2016-03-10T16:53:51.034Z,15
2016-03-10T16:54:51.115Z,10
2016-03-10T16:55:51.023Z,10
2016-03-10T16:56:50.979Z,10
2016-03-10T16:57:50.987Z,10
2016-03-10T16:58:50.953Z,5
2016-03-10T16:59:50.951Z,5
2016-03-10T17:00:50.948Z,5
2016-03-10T17:01:50.912Z,5
2016-03-10T17:02:50.897Z,5
2016-03-10T17:03:50.897Z,5
2016-03-10T17:04:50.898Z,5
2016-03-10T17:05:50.899Z,5
2016-03-10T17:06:50.883Z,0
2016-03-10T17:07:50.854Z,0
2016-03-10T17:08:50.856Z,0
2016-03-10T17:09:50.857Z,0
2016-03-10T17:10:50.860Z,0
2016-03-10T17:11:50.815Z,0
2016-03-10T17:12:50.863Z,0
2016-03-10T17:13:52.319Z,0
2016-03-10T17:14:50.821Z,0
2016-03-10T17:15:50.793Z,0
2016-03-10T17:16:50.795Z,0
2016-03-10T17:18:05.781Z,0
2016-03-10T17:18:51.018Z,0
2016-03-10T17:19:50.803Z,0
2016-03-10T17:20:50.758Z,0
2016-03-10T17:21:50.776Z,0
2016-03-10T17:23:07.154Z,0
2016-03-10T17:23:50.892Z,0
2016-03-10T17:24:50.753Z,0
2016-03-10T17:25:51.334Z,0
2016-03-10T17:27:04.915Z,0
2016-03-10T17:27:50.933Z,0
2016-03-10T17:28:50.733Z,0
2016-03-10T17:29:50.829Z,0
2016-03-10T17:30:50.692Z,0
2016-03-10T17:31:50.710Z,0
2016-03-10T17:32:50.728Z,0
2016-03-10T17:33:50.699Z,0
2016-03-10T17:34:50.686Z,0
2016-03-10T17:35:50.674Z,0
2016-03-10T17:36:50.707Z,0
2016-03-10T17:37:50.663Z,0
2016-03-10T17:38:50.666Z,0
2016-03-10T17:39:50.637Z,0
2016-03-10T17:40:50.641Z,0
2016-03-10T17:41:50.659Z,0
2016-03-10T17:42:50.629Z,0
2016-03-10T17:43:50.633Z,0
2016-03-10T17:44:50.901Z,0
2016-03-10T17:45:50.590Z,0
2016-03-10T17:46:50.626Z,0
2016-03-10T17:47:50.581Z,0
2016-03-10T17:48:50.599Z,0
2016-03-10T17:49:50.587Z,0
2016-03-10T17:50:50.573Z,0
2016-03-10T17:51:50.592Z,0
2016-03-10T17:52:50.563Z,0
2016-03-10T17:53:50.550Z,0
2016-03-10T17:54:50.522Z,0
2016-03-10T17:55:50.524Z,0
2016-03-10T17:56:50.528Z,0
2016-03-10T17:58:52.204Z,0
2016-03-10T17:59:50.504Z,0
2016-03-10T18:00:51.085Z,0
2016-03-10T18:01:51.274Z,0
2016-03-10T18:02:50.747Z,0
2016-03-10T18:03:50.843Z,0
2016-03-10T18:04:50.580Z,0
2016-03-10T18:05:50.489Z,0
2016-03-10T18:06:50.444Z,0
2016-03-10T18:07:52.854Z,0
2016-03-10T18:08:52.700Z,0
2016-03-10T18:09:51.952Z,0
2016-03-10T18:10:51.204Z,0
2016-03-10T18:11:51.380Z,0
2016-03-10T18:12:50.867Z,0
2016-03-10T18:13:50.416Z,0
2016-03-10T18:14:50.248Z,0
2016-03-10T18:15:50.390Z,0
2016-03-10T18:16:50.409Z,0
2016-03-10T18:17:50.396Z,0
2016-03-10T18:18:50.195Z,0
2016-03-10T18:19:50.386Z,0
2016-03-10T18:20:50.357Z,0
2016-03-10T18:21:50.376Z,0
2016-03-10T18:22:50.331Z,0
2016-03-10T18:23:50.366Z,0
2016-03-10T18:24:50.307Z,0
2016-03-10T18:25:50.324Z,0
2016-03-10T18:26:50.358Z,0
2016-03-10T18:27:50.299Z,0
2016-03-10T18:28:50.317Z,0
2016-03-10T18:29:50.289Z,0
2016-03-10T18:30:50.307Z,0
2016-03-10T18:31:50.262Z,0
2016-03-10T18:32:52.640Z,0
2016-03-10T18:33:50.315Z,0
2016-03-10T18:34:50.692Z,0
2016-03-10T18:35:50.726Z,0
2016-03-10T18:37:50.247Z,0
2016-03-10T18:38:50.219Z,0
2016-03-10T18:39:50.612Z,0
2016-03-10T18:40:50.193Z,0
2016-03-10T18:41:51.025Z,0
2016-03-10T18:42:50.636Z,0
2016-03-10T18:43:50.169Z,0
2016-03-10T18:45:04.688Z,0
2016-03-10T18:45:50.175Z,0
2016-03-10T18:46:50.960Z,0
2016-03-10T18:47:50.571Z,0
2016-03-10T18:48:50.777Z,0
2016-03-10T18:49:50.186Z,0
2016-03-10T18:50:50.141Z,0
2016-03-10T18:51:50.160Z,0
2016-03-10T18:52:50.116Z,0
2016-03-10T18:53:50.118Z,0
2016-03-10T18:54:50.122Z,0
2016-03-10T18:55:50.109Z,0
2016-03-10T18:56:50.111Z,0
2016-03-10T18:57:50.099Z,0
2016-03-10T18:58:50.085Z,0
2016-03-10T18:59:50.072Z,0
2016-03-10T19:00:50.076Z,0
2016-03-10T19:01:50.078Z,0
2016-03-10T19:02:50.081Z,0
2016-03-10T19:03:50.036Z,0
2016-03-10T19:04:50.070Z,0
2016-03-10T19:05:50.025Z,0
2016-03-10T19:06:50.014Z,0
2016-03-10T19:07:50.031Z,0
2016-03-10T19:08:49.986Z,0
2016-03-10T19:09:50.006Z,0
2016-03-10T19:10:50.008Z,0
2016-03-10T19:11:49.995Z,0
2016-03-10T19:12:49.983Z,0
2016-03-10T19:13:49.969Z,0
2016-03-10T19:14:49.956Z,0
2016-03-10T19:15:50.038Z,0
2016-03-10T19:17:52.043Z,0
2016-03-10T19:18:50.265Z,0
2016-03-10T19:19:50.705Z,0
2016-03-10T19:20:59.944Z,0
2016-03-10T19:21:50.551Z,0
2016-03-10T19:22:50.570Z,0
2016-03-10T19:23:50.291Z,0
2016-03-10T19:24:50.106Z,0
2016-03-10T19:25:49.891Z,0
2016-03-10T19:26:52.644Z,0
2016-03-10T19:27:49.896Z,0
2016-03-10T19:28:49.835Z,0
2016-03-10T19:29:50.699Z,0
2016-03-10T19:30:49.685Z,0
2016-03-10T19:31:50.407Z,0
2016-03-10T19:32:49.832Z,0
2016-03-10T19:33:49.802Z,0
2016-03-10T19:34:49.821Z,0
2016-03-10T19:35:49.777Z,0
2016-03-10T19:36:49.780Z,0
2016-03-10T19:37:49.787Z,0
2016-03-10T19:38:49.773Z,0
2016-03-10T19:39:49.652Z,0
2016-03-10T19:40:49.732Z,0
2016-03-10T19:41:49.767Z,0
2016-03-10T19:42:49.566Z,0
2016-03-10T19:43:49.740Z,0
2016-03-10T19:44:49.696Z,0
2016-03-10T19:45:49.589Z,0
2016-03-10T19:46:49.733Z,0
2016-03-10T19:47:49.720Z,0
2016-03-10T19:48:49.675Z,0
2016-03-10T19:49:49.694Z,0
2016-03-10T19:50:49.681Z,0
2016-03-10T19:51:49.669Z,0
2016-03-10T19:52:49.686Z,0
2016-03-10T19:53:49.674Z,0
2016-03-10T19:54:49.630Z,0
2016-03-10T19:55:49.648Z,0
2016-03-10T19:56:49.636Z,0
2016-03-10T19:57:49.607Z,0
2016-03-10T19:58:49.625Z,0
2016-03-10T19:59:49.612Z,0
2016-03-10T20:00:49.443Z,0
2016-03-10T20:01:49.618Z,0
2016-03-10T20:02:49.605Z,0
2016-03-10T20:03:49.576Z,0
2016-03-10T20:04:49.563Z,0
2016-03-10T20:05:49.565Z,0
2016-03-10T20:06:49.568Z,0
2016-03-10T20:07:49.639Z,0
2016-03-10T20:08:49.579Z,0
2016-03-10T20:09:49.519Z,0
2016-03-10T20:10:49.536Z,0
2016-03-10T20:11:49.524Z,0
2016-03-10T20:12:49.495Z,0
2016-03-10T20:13:49.529Z,0
2016-03-10T20:14:49.469Z,0
2016-03-10T20:15:49.503Z,0
2016-03-10T20:16:49.459Z,0
2016-03-10T20:17:49.508Z,0
2016-03-10T20:18:49.449Z,0
2016-03-10T20:19:49.483Z,0
2016-03-10T20:20:49.436Z,0
2016-03-10T20:21:49.439Z,0
2016-03-10T20:22:49.457Z,0
2016-03-10T20:23:51.085Z,0
2016-03-10T20:24:49.432Z,0
2016-03-10T20:25:49.402Z,0
2016-03-10T20:26:49.421Z,0
2016-03-10T20:27:49.408Z,0
2016-03-10T20:28:49.364Z,0
2016-03-10T20:29:49.399Z,0
2016-03-10T20:30:49.369Z,0
2016-03-10T20:31:49.357Z,0
2016-03-10T20:32:49.360Z,0
2016-03-10T20:33:49.362Z,0
2016-03-10T20:34:49.318Z,0
2016-03-10T20:35:52.901Z,0
2016-03-10T20:36:51.370Z,0
2016-03-10T20:37:49.482Z,0
2016-03-10T20:38:50.188Z,0
2016-03-10T20:39:50.331Z,0
2016-03-10T20:40:49.928Z,0
2016-03-10T20:41:49.306Z,0
2016-03-10T20:42:49.761Z,0
2016-03-10T20:43:49.451Z,0
2016-03-10T20:44:49.298Z,0
2016-03-10T20:45:52.129Z,0
2016-03-10T20:46:49.225Z,0
2016-03-10T20:47:49.259Z,0
2016-03-10T20:48:50.247Z,0
2016-03-10T20:49:49.233Z,0
2016-03-10T20:50:49.861Z,0
2016-03-10T20:51:49.847Z,0
2016-03-10T20:52:51.288Z,0
2016-03-10T20:53:49.181Z,0
2016-03-10T20:54:49.199Z,0
2016-03-10T20:55:49.827Z,0
2016-03-10T20:56:49.579Z,0
2016-03-10T20:57:49.488Z,0
2016-03-10T20:58:49.148Z,0
2016-03-10T20:59:49.291Z,0
2016-03-10T21:00:49.918Z,0
2016-03-10T21:01:51.593Z,0
2016-03-10T21:02:50.803Z,0
2016-03-10T21:03:49.478Z,0
2016-03-10T21:06:49.595Z,0
2016-03-10T21:07:49.067Z,0
2016-03-10T21:08:49.085Z,0
2016-03-10T21:09:49.072Z,0
2016-03-10T21:10:49.059Z,0
2016-03-10T21:11:49.046Z,0
2016-03-10T21:12:49.096Z,0
2016-03-10T21:13:49.020Z,0
2016-03-10T21:14:48.304Z,0
2016-03-10T21:15:49.026Z,0
2016-03-10T21:16:49.013Z,0
2016-03-10T21:17:48.281Z,0
2016-03-10T21:18:48.987Z,0
2016-03-10T21:19:49.052Z,0
2016-03-10T21:20:48.977Z,0
2016-03-10T21:21:48.995Z,0
2016-03-10T21:22:48.951Z,0
2016-03-10T21:23:48.954Z,0
2016-03-10T21:24:48.972Z,0
2016-03-10T21:25:48.943Z,0
2016-03-10T21:26:48.962Z,0
2016-03-10T21:27:48.917Z,0
2016-03-10T21:28:48.936Z,0
2016-03-10T21:29:48.922Z,0
2016-03-10T21:30:48.926Z,0
2016-03-10T21:31:48.897Z,0
2016-03-10T21:32:48.900Z,0
2016-03-10T21:33:48.902Z,0
2016-03-10T21:34:48.889Z,0
2016-03-10T21:35:48.845Z,0
2016-03-10T21:36:48.879Z,0
2016-03-10T21:37:48.881Z,0
2016-03-10T21:38:48.853Z,0
2016-03-10T21:39:48.871Z,0
2016-03-10T21:40:48.828Z,0
2016-03-10T21:41:48.814Z,0
2016-03-10T21:42:48.816Z,0
2016-03-10T21:43:48.788Z,0
2016-03-10T21:44:48.807Z,0
2016-03-10T21:45:48.777Z,0
2016-03-10T21:46:48.797Z,0
2016-03-10T21:47:48.753Z,0
2016-03-10T21:48:48.802Z,0
2016-03-10T21:49:48.788Z,0
2016-03-10T21:50:48.760Z,0
2016-03-10T21:51:48.716Z,0
2016-03-10T21:52:48.781Z,0
2016-03-10T21:53:48.721Z,0
2016-03-10T21:55:05.039Z,0
2016-03-10T21:55:50.695Z,0
2016-03-10T21:56:48.964Z,0
2016-03-10T21:57:49.576Z,0
2016-03-10T21:58:49.719Z,0
2016-03-10T21:59:49.331Z,0
2016-03-10T22:00:48.678Z,0
2016-03-10T22:01:49.181Z,0
2016-03-10T22:02:48.667Z,0
2016-03-10T22:03:48.639Z,0
2016-03-10T22:04:51.469Z,0
2016-03-10T22:05:48.691Z,0
2016-03-10T22:06:48.616Z,0
2016-03-10T22:07:49.697Z,0
2016-03-10T22:08:48.605Z,0
2016-03-10T22:09:49.311Z,0
2016-03-10T22:10:48.720Z,0
2016-03-10T22:11:48.566Z,0
2016-03-10T22:12:48.757Z,0
2016-03-10T22:13:48.869Z,0
2016-03-10T22:14:48.893Z,0
2016-03-10T22:15:48.927Z,0
2016-03-10T22:16:48.757Z,0
2016-03-10T22:17:48.541Z,0
2016-03-10T22:18:48.575Z,0
2016-03-10T22:19:49.843Z,0
2016-03-10T22:21:03.302Z,0
2016-03-10T22:21:48.583Z,0
2016-03-10T22:23:03.135Z,0
2016-03-10T22:23:48.667Z,0
2016-03-10T22:25:03.125Z,0
2016-03-10T22:25:48.781Z,0
2016-03-10T22:26:48.471Z,0
2016-03-10T22:27:48.489Z,0
2016-03-10T22:28:48.476Z,0
2016-03-10T22:29:48.433Z,0
2016-03-10T22:30:48.481Z,0
2016-03-10T22:31:48.422Z,0
2016-03-10T22:32:48.441Z,0
2016-03-10T22:33:48.475Z,0
2016-03-10T22:34:48.414Z,0
2016-03-10T22:35:48.403Z,0
2016-03-10T22:36:48.389Z,0
2016-03-10T22:37:48.439Z,0
2016-03-10T22:38:48.395Z,0
2016-03-10T22:39:48.397Z,0
2016-03-10T22:40:48.369Z,0
2016-03-10T22:41:48.387Z,0
2016-03-10T22:42:48.358Z,0
2016-03-10T22:43:48.377Z,0
2016-03-10T22:44:48.348Z,0
2016-03-10T22:45:48.366Z,0
2016-03-10T22:46:48.338Z,0
2016-03-10T22:47:48.324Z,0
2016-03-10T22:48:48.327Z,0
2016-03-10T22:49:48.299Z,0
2016-03-10T22:50:48.301Z,0
2016-03-10T22:51:48.304Z,0
2016-03-10T22:52:48.290Z,0
2016-03-10T22:53:48.293Z,0
2016-03-10T22:54:48.265Z,0
2016-03-10T22:55:48.253Z,0
2016-03-10T22:56:48.287Z,0
2016-03-10T22:57:48.259Z,0
2016-03-10T22:58:48.245Z,0
2016-03-10T22:59:48.217Z,0
2016-03-10T23:00:48.251Z,0
2016-03-10T23:01:48.206Z,0
2016-03-10T23:02:48.209Z,0
2016-03-10T23:03:48.196Z,0
2016-03-10T23:04:48.214Z,0
2016-03-10T23:05:48.186Z,0
2016-03-10T23:06:48.172Z,0
2016-03-10T23:07:48.175Z,0
2016-03-10T23:08:48.163Z,0
2016-03-10T23:09:48.133Z,0
2016-03-10T23:10:48.136Z,0
2016-03-10T23:11:48.139Z,0
2016-03-10T23:12:49.439Z,0
2016-03-10T23:13:48.645Z,0
2016-03-10T23:14:50.522Z,0
2016-03-10T23:15:48.635Z,0
2016-03-10T23:16:49.215Z,0
2016-03-10T23:17:48.796Z,0
2016-03-10T23:18:48.798Z,0
2016-03-10T23:19:48.083Z,0
2016-03-10T23:20:48.633Z,0
2016-03-10T23:21:48.073Z,0
2016-03-10T23:22:48.028Z,0
2016-03-10T23:23:50.938Z,0
2016-03-10T23:24:48.049Z,0
2016-03-10T23:25:48.037Z,0
2016-03-10T23:26:48.962Z,0
2016-03-10T23:27:48.026Z,0
2016-03-10T23:28:48.653Z,0
2016-03-10T23:30:47.987Z,0
2016-03-10T23:31:48.631Z,0
2016-03-10T23:33:02.198Z,0
2016-03-10T23:33:48.808Z,0
2016-03-10T23:34:47.936Z,0
2016-03-10T23:35:47.970Z,0
2016-03-10T23:36:48.144Z,0
2016-03-10T23:37:47.912Z,0
2016-03-10T23:38:47.931Z,0
2016-03-10T23:40:03.012Z,0
2016-03-10T23:40:47.920Z,0
2016-03-10T23:41:47.736Z,0
2016-03-10T23:42:48.192Z,0
2016-03-10T23:43:48.100Z,0
2016-03-10T23:44:48.322Z,0
2016-03-10T23:45:47.856Z,0
2016-03-10T23:46:47.858Z,0
2016-03-10T23:47:47.846Z,0
2016-03-10T23:48:47.848Z,0
2016-03-10T23:49:47.851Z,0
2016-03-10T23:50:47.822Z,0
2016-03-10T23:51:47.809Z,0
2016-03-10T23:52:47.827Z,0
2016-03-10T23:53:47.799Z,0
2016-03-10T23:54:47.801Z,0
2016-03-10T23:55:47.789Z,0
2016-03-10T23:56:47.807Z,0
2016-03-10T23:57:47.762Z,0
2016-03-10T23:58:47.765Z,0
2016-03-10T23:59:47.768Z,0
